sensor_id;sensor_type;location;lat;lon;timestamp;P1;durP1;ratioP1;P2;durP2;ratioP2
10309;SDS011;5200;43.236;27.986;2022-09-09T00:01:56;2.47;;;1.33;;
10309;SDS011;5200;43.236;27.986;2022-09-09T00:04:28;5.20;;;1.70;;
10309;SDS011;5200;43.236;27.986;2022-09-09T00:06:59;2.08;;;1.88;;
10309;SDS011;5200;43.236;27.986;2022-09-09T00:09:31;3.10;;;2.17;;
10309;SDS011;5200;43.236;27.986;2022-09-09T00:12:09;3.97;;;2.03;;
10309;SDS011;5200;43.236;27.986;2022-09-09T00:14:40;2.65;;;1.65;;
10309;SDS011;5200;43.236;27.986;2022-09-09T00:17:17;1.88;;;1.58;;
10309;SDS011;5200;43.236;27.986;2022-09-09T00:19:54;2.35;;;1.73;;
10309;SDS011;5200;43.236;27.986;2022-09-09T00:22:27;3.88;;;1.70;;
10309;SDS011;5200;43.236;27.986;2022-09-09T00:24:58;2.50;;;1.77;;
10309;SDS011;5200;43.236;27.986;2022-09-09T00:27:37;4.90;;;1.60;;
10309;SDS011;5200;43.236;27.986;2022-09-09T00:30:13;1.45;;;1.35;;
10309;SDS011;5200;43.236;27.986;2022-09-09T00:32:46;2.25;;;1.70;;
10309;SDS011;5200;43.236;27.986;2022-09-09T00:35:17;1.60;;;1.50;;
10309;SDS011;5200;43.236;27.986;2022-09-09T00:37:50;2.72;;;1.88;;
10309;SDS011;5200;43.236;27.986;2022-09-09T00:40:22;1.73;;;1.60;;
10309;SDS011;5200;43.236;27.986;2022-09-09T00:42:54;2.20;;;1.23;;
10309;SDS011;5200;43.236;27.986;2022-09-09T00:45:53;1.45;;;1.35;;
10309;SDS011;5200;43.236;27.986;2022-09-09T00:48:34;4.28;;;2.08;;
10309;SDS011;5200;43.236;27.986;2022-09-09T00:51:12;1.60;;;1.50;;
10309;SDS011;5200;43.236;27.986;2022-09-09T00:53:54;1.45;;;1.25;;
10309;SDS011;5200;43.236;27.986;2022-09-09T00:56:36;2.53;;;1.55;;
10309;SDS011;5200;43.236;27.986;2022-09-09T00:59:12;2.17;;;1.48;;
10309;SDS011;5200;43.236;27.986;2022-09-09T01:01:47;3.95;;;1.55;;
10309;SDS011;5200;43.236;27.986;2022-09-09T01:04:18;2.00;;;1.67;;
10309;SDS011;5200;43.236;27.986;2022-09-09T01:06:52;2.25;;;1.50;;
10309;SDS011;5200;43.236;27.986;2022-09-09T01:09:27;1.40;;;1.30;;
10309;SDS011;5200;43.236;27.986;2022-09-09T01:12:07;1.52;;;1.42;;
10309;SDS011;5200;43.236;27.986;2022-09-09T01:14:40;2.88;;;1.65;;
10309;SDS011;5200;43.236;27.986;2022-09-09T01:17:14;1.42;;;1.33;;
10309;SDS011;5200;43.236;27.986;2022-09-09T01:19:49;1.50;;;1.25;;
10309;SDS011;5200;43.236;27.986;2022-09-09T01:22:26;3.08;;;1.40;;
10309;SDS011;5200;43.236;27.986;2022-09-09T01:25:13;2.00;;;1.30;;
10309;SDS011;5200;43.236;27.986;2022-09-09T01:27:49;1.60;;;1.50;;
10309;SDS011;5200;43.236;27.986;2022-09-09T01:30:20;5.18;;;1.85;;
10309;SDS011;5200;43.236;27.986;2022-09-09T01:32:48;2.22;;;1.38;;
10309;SDS011;5200;43.236;27.986;2022-09-09T01:35:20;1.52;;;1.30;;
10309;SDS011;5200;43.236;27.986;2022-09-09T01:37:55;7.90;;;1.58;;
10309;SDS011;5200;43.236;27.986;2022-09-09T01:40:23;2.22;;;1.52;;
10309;SDS011;5200;43.236;27.986;2022-09-09T01:42:52;1.40;;;1.30;;
10309;SDS011;5200;43.236;27.986;2022-09-09T01:45:20;2.97;;;1.35;;
10309;SDS011;5200;43.236;27.986;2022-09-09T01:47:48;1.45;;;1.35;;
10309;SDS011;5200;43.236;27.986;2022-09-09T01:50:16;1.83;;;1.40;;
10309;SDS011;5200;43.236;27.986;2022-09-09T01:52:43;1.45;;;1.35;;
10309;SDS011;5200;43.236;27.986;2022-09-09T01:55:12;3.30;;;1.30;;
10309;SDS011;5200;43.236;27.986;2022-09-09T01:57:41;1.75;;;1.40;;
10309;SDS011;5200;43.236;27.986;2022-09-09T02:00:17;6.43;;;1.50;;
10309;SDS011;5200;43.236;27.986;2022-09-09T02:02:47;2.83;;;1.60;;
10309;SDS011;5200;43.236;27.986;2022-09-09T02:05:25;1.50;;;1.40;;
10309;SDS011;5200;43.236;27.986;2022-09-09T02:08:03;2.92;;;1.42;;
10309;SDS011;5200;43.236;27.986;2022-09-09T02:10:36;3.22;;;1.38;;
10309;SDS011;5200;43.236;27.986;2022-09-09T02:13:10;2.72;;;1.70;;
10309;SDS011;5200;43.236;27.986;2022-09-09T02:15:42;1.65;;;1.40;;
10309;SDS011;5200;43.236;27.986;2022-09-09T02:18:14;4.57;;;1.70;;
10309;SDS011;5200;43.236;27.986;2022-09-09T02:20:46;6.20;;;1.90;;
10309;SDS011;5200;43.236;27.986;2022-09-09T02:23:14;3.15;;;1.70;;
10309;SDS011;5200;43.236;27.986;2022-09-09T02:25:42;1.75;;;1.52;;
10309;SDS011;5200;43.236;27.986;2022-09-09T02:28:11;1.58;;;1.48;;
10309;SDS011;5200;43.236;27.986;2022-09-09T02:30:44;3.80;;;1.73;;
10309;SDS011;5200;43.236;27.986;2022-09-09T02:33:13;1.67;;;1.58;;
10309;SDS011;5200;43.236;27.986;2022-09-09T02:35:41;1.50;;;1.40;;
10309;SDS011;5200;43.236;27.986;2022-09-09T02:38:10;2.45;;;1.33;;
10309;SDS011;5200;43.236;27.986;2022-09-09T02:40:40;1.63;;;1.52;;
10309;SDS011;5200;43.236;27.986;2022-09-09T02:43:07;2.70;;;1.70;;
10309;SDS011;5200;43.236;27.986;2022-09-09T02:45:35;1.73;;;1.63;;
10309;SDS011;5200;43.236;27.986;2022-09-09T02:48:11;5.40;;;1.70;;
10309;SDS011;5200;43.236;27.986;2022-09-09T02:50:46;1.70;;;1.60;;
10309;SDS011;5200;43.236;27.986;2022-09-09T02:53:22;1.88;;;1.73;;
10309;SDS011;5200;43.236;27.986;2022-09-09T02:55:55;3.78;;;1.63;;
10309;SDS011;5200;43.236;27.986;2022-09-09T02:58:30;2.75;;;1.77;;
10309;SDS011;5200;43.236;27.986;2022-09-09T03:00:57;2.92;;;1.60;;
10309;SDS011;5200;43.236;27.986;2022-09-09T03:03:27;2.05;;;1.40;;
10309;SDS011;5200;43.236;27.986;2022-09-09T03:05:55;3.97;;;1.80;;
10309;SDS011;5200;43.236;27.986;2022-09-09T03:08:22;1.50;;;1.38;;
10309;SDS011;5200;43.236;27.986;2022-09-09T03:10:49;4.60;;;1.75;;
10309;SDS011;5200;43.236;27.986;2022-09-09T03:13:19;2.85;;;1.70;;
10309;SDS011;5200;43.236;27.986;2022-09-09T03:15:45;5.95;;;1.70;;
10309;SDS011;5200;43.236;27.986;2022-09-09T03:18:14;1.70;;;1.60;;
10309;SDS011;5200;43.236;27.986;2022-09-09T03:20:43;3.22;;;1.65;;
10309;SDS011;5200;43.236;27.986;2022-09-09T03:23:09;1.65;;;1.55;;
10309;SDS011;5200;43.236;27.986;2022-09-09T03:25:38;2.78;;;1.80;;
10309;SDS011;5200;43.236;27.986;2022-09-09T03:28:05;3.50;;;1.88;;
10309;SDS011;5200;43.236;27.986;2022-09-09T03:30:32;2.35;;;1.70;;
10309;SDS011;5200;43.236;27.986;2022-09-09T03:32:59;1.40;;;1.30;;
10309;SDS011;5200;43.236;27.986;2022-09-09T03:35:26;3.03;;;1.60;;
10309;SDS011;5200;43.236;27.986;2022-09-09T03:37:56;1.70;;;1.60;;
10309;SDS011;5200;43.236;27.986;2022-09-09T03:40:22;1.60;;;1.50;;
10309;SDS011;5200;43.236;27.986;2022-09-09T03:42:49;1.88;;;1.50;;
10309;SDS011;5200;43.236;27.986;2022-09-09T03:45:16;3.25;;;1.63;;
10309;SDS011;5200;43.236;27.986;2022-09-09T03:47:43;1.75;;;1.65;;
10309;SDS011;5200;43.236;27.986;2022-09-09T03:50:10;1.77;;;1.67;;
10309;SDS011;5200;43.236;27.986;2022-09-09T03:52:37;4.93;;;1.88;;
10309;SDS011;5200;43.236;27.986;2022-09-09T03:55:07;1.48;;;1.38;;
10309;SDS011;5200;43.236;27.986;2022-09-09T03:57:34;2.22;;;1.63;;
10309;SDS011;5200;43.236;27.986;2022-09-09T04:00:02;3.53;;;1.52;;
10309;SDS011;5200;43.236;27.986;2022-09-09T04:02:30;2.05;;;1.67;;
10309;SDS011;5200;43.236;27.986;2022-09-09T04:04:57;1.80;;;1.67;;
10309;SDS011;5200;43.236;27.986;2022-09-09T04:07:24;3.17;;;1.65;;
10309;SDS011;5200;43.236;27.986;2022-09-09T04:09:52;5.93;;;1.50;;
10309;SDS011;5200;43.236;27.986;2022-09-09T04:12:21;4.85;;;1.90;;
10309;SDS011;5200;43.236;27.986;2022-09-09T04:14:47;1.45;;;1.35;;
10309;SDS011;5200;43.236;27.986;2022-09-09T04:17:14;3.38;;;1.38;;
10309;SDS011;5200;43.236;27.986;2022-09-09T04:19:42;3.55;;;1.20;;
10309;SDS011;5200;43.236;27.986;2022-09-09T04:22:09;2.17;;;1.50;;
10309;SDS011;5200;43.236;27.986;2022-09-09T04:24:36;3.38;;;1.40;;
10309;SDS011;5200;43.236;27.986;2022-09-09T04:27:03;1.42;;;1.33;;
10309;SDS011;5200;43.236;27.986;2022-09-09T04:29:31;3.60;;;1.40;;
10309;SDS011;5200;43.236;27.986;2022-09-09T04:32:00;1.13;;;1.05;;
10309;SDS011;5200;43.236;27.986;2022-09-09T04:34:27;2.80;;;1.55;;
10309;SDS011;5200;43.236;27.986;2022-09-09T04:36:55;1.15;;;1.05;;
10309;SDS011;5200;43.236;27.986;2022-09-09T04:39:22;1.52;;;1.42;;
10309;SDS011;5200;43.236;27.986;2022-09-09T04:41:49;3.88;;;1.55;;
10309;SDS011;5200;43.236;27.986;2022-09-09T04:44:16;2.70;;;1.42;;
10309;SDS011;5200;43.236;27.986;2022-09-09T04:46:44;1.65;;;1.10;;
10309;SDS011;5200;43.236;27.986;2022-09-09T04:49:11;1.52;;;1.20;;
10309;SDS011;5200;43.236;27.986;2022-09-09T04:51:38;2.42;;;1.10;;
10309;SDS011;5200;43.236;27.986;2022-09-09T04:54:05;2.53;;;1.40;;
10309;SDS011;5200;43.236;27.986;2022-09-09T04:56:32;1.08;;;1.00;;
10309;SDS011;5200;43.236;27.986;2022-09-09T04:58:59;1.65;;;1.20;;
10309;SDS011;5200;43.236;27.986;2022-09-09T05:01:27;1.90;;;1.20;;
10309;SDS011;5200;43.236;27.986;2022-09-09T05:03:56;1.20;;;1.10;;
10309;SDS011;5200;43.236;27.986;2022-09-09T05:06:22;4.95;;;1.55;;
10309;SDS011;5200;43.236;27.986;2022-09-09T05:08:50;1.98;;;1.30;;
10309;SDS011;5200;43.236;27.986;2022-09-09T05:11:17;2.53;;;1.80;;
10309;SDS011;5200;43.236;27.986;2022-09-09T05:13:45;3.28;;;1.48;;
10309;SDS011;5200;43.236;27.986;2022-09-09T05:16:13;3.67;;;1.20;;
10309;SDS011;5200;43.236;27.986;2022-09-09T05:18:40;2.50;;;1.27;;
10309;SDS011;5200;43.236;27.986;2022-09-09T05:21:09;2.38;;;1.52;;
10309;SDS011;5200;43.236;27.986;2022-09-09T05:23:36;3.10;;;1.10;;
10309;SDS011;5200;43.236;27.986;2022-09-09T05:26:04;1.00;;;1.00;;
10309;SDS011;5200;43.236;27.986;2022-09-09T05:28:33;1.90;;;1.15;;
10309;SDS011;5200;43.236;27.986;2022-09-09T05:31:01;2.75;;;1.23;;
10309;SDS011;5200;43.236;27.986;2022-09-09T05:33:30;1.60;;;1.13;;
10309;SDS011;5200;43.236;27.986;2022-09-09T05:35:58;1.02;;;0.73;;
10309;SDS011;5200;43.236;27.986;2022-09-09T05:38:28;1.98;;;1.33;;
10309;SDS011;5200;43.236;27.986;2022-09-09T05:40:55;2.15;;;1.50;;
10309;SDS011;5200;43.236;27.986;2022-09-09T05:43:23;1.63;;;1.52;;
10309;SDS011;5200;43.236;27.986;2022-09-09T05:45:58;2.47;;;1.25;;
10309;SDS011;5200;43.236;27.986;2022-09-09T05:48:27;2.30;;;1.23;;
10309;SDS011;5200;43.236;27.986;2022-09-09T05:50:55;2.85;;;0.88;;
10309;SDS011;5200;43.236;27.986;2022-09-09T05:53:23;2.58;;;1.30;;
10309;SDS011;5200;43.236;27.986;2022-09-09T05:55:57;2.03;;;1.38;;
10309;SDS011;5200;43.236;27.986;2022-09-09T05:58:25;1.05;;;0.82;;
10309;SDS011;5200;43.236;27.986;2022-09-09T06:00:51;1.10;;;1.10;;
10309;SDS011;5200;43.236;27.986;2022-09-09T06:03:19;1.90;;;1.25;;
10309;SDS011;5200;43.236;27.986;2022-09-09T06:05:56;0.77;;;0.77;;
10309;SDS011;5200;43.236;27.986;2022-09-09T06:08:23;1.30;;;1.20;;
10309;SDS011;5200;43.236;27.986;2022-09-09T06:10:52;1.48;;;1.35;;
10309;SDS011;5200;43.236;27.986;2022-09-09T06:13:19;3.90;;;0.98;;
10309;SDS011;5200;43.236;27.986;2022-09-09T06:15:49;5.07;;;1.48;;
10309;SDS011;5200;43.236;27.986;2022-09-09T06:18:17;2.80;;;1.45;;
10309;SDS011;5200;43.236;27.986;2022-09-09T06:20:52;1.80;;;1.30;;
10309;SDS011;5200;43.236;27.986;2022-09-09T06:23:20;1.20;;;1.10;;
10309;SDS011;5200;43.236;27.986;2022-09-09T06:25:47;0.95;;;0.93;;
10309;SDS011;5200;43.236;27.986;2022-09-09T06:28:15;1.27;;;1.17;;
10309;SDS011;5200;43.236;27.986;2022-09-09T06:30:42;2.65;;;1.40;;
10309;SDS011;5200;43.236;27.986;2022-09-09T06:33:09;2.13;;;1.23;;
10309;SDS011;5200;43.236;27.986;2022-09-09T06:35:36;1.38;;;0.90;;
10309;SDS011;5200;43.236;27.986;2022-09-09T06:38:03;2.97;;;1.65;;
10309;SDS011;5200;43.236;27.986;2022-09-09T06:40:31;1.38;;;0.95;;
10309;SDS011;5200;43.236;27.986;2022-09-09T06:42:59;3.22;;;1.40;;
10309;SDS011;5200;43.236;27.986;2022-09-09T06:45:28;1.60;;;1.23;;
10309;SDS011;5200;43.236;27.986;2022-09-09T06:47:55;1.52;;;1.33;;
10309;SDS011;5200;43.236;27.986;2022-09-09T06:50:22;0.93;;;0.93;;
10309;SDS011;5200;43.236;27.986;2022-09-09T06:52:49;1.98;;;0.98;;
10309;SDS011;5200;43.236;27.986;2022-09-09T06:55:16;1.65;;;1.20;;
10309;SDS011;5200;43.236;27.986;2022-09-09T06:57:44;1.17;;;1.17;;
10309;SDS011;5200;43.236;27.986;2022-09-09T07:00:11;1.60;;;1.08;;
10309;SDS011;5200;43.236;27.986;2022-09-09T07:02:41;2.83;;;1.33;;
10309;SDS011;5200;43.236;27.986;2022-09-09T07:05:08;1.58;;;1.20;;
10309;SDS011;5200;43.236;27.986;2022-09-09T07:07:35;2.13;;;1.20;;
10309;SDS011;5200;43.236;27.986;2022-09-09T07:10:03;0.90;;;0.90;;
10309;SDS011;5200;43.236;27.986;2022-09-09T07:12:30;1.20;;;1.00;;
10309;SDS011;5200;43.236;27.986;2022-09-09T07:14:57;1.25;;;1.13;;
10309;SDS011;5200;43.236;27.986;2022-09-09T07:17:24;3.63;;;1.20;;
10309;SDS011;5200;43.236;27.986;2022-09-09T07:19:52;1.17;;;1.02;;
10309;SDS011;5200;43.236;27.986;2022-09-09T07:22:19;2.47;;;1.17;;
10309;SDS011;5200;43.236;27.986;2022-09-09T07:24:46;2.10;;;1.10;;
10309;SDS011;5200;43.236;27.986;2022-09-09T07:27:14;1.23;;;0.95;;
10309;SDS011;5200;43.236;27.986;2022-09-09T07:29:41;1.52;;;1.27;;
10309;SDS011;5200;43.236;27.986;2022-09-09T07:32:08;2.33;;;1.25;;
10309;SDS011;5200;43.236;27.986;2022-09-09T07:34:35;2.05;;;1.17;;
10309;SDS011;5200;43.236;27.986;2022-09-09T07:37:03;2.13;;;1.20;;
10309;SDS011;5200;43.236;27.986;2022-09-09T07:39:30;2.00;;;1.13;;
10309;SDS011;5200;43.236;27.986;2022-09-09T07:41:57;1.13;;;1.10;;
10309;SDS011;5200;43.236;27.986;2022-09-09T07:44:24;1.40;;;1.30;;
10309;SDS011;5200;43.236;27.986;2022-09-09T07:46:51;2.05;;;1.25;;
10309;SDS011;5200;43.236;27.986;2022-09-09T07:49:19;2.20;;;0.88;;
10309;SDS011;5200;43.236;27.986;2022-09-09T07:51:46;1.45;;;1.10;;
10309;SDS011;5200;43.236;27.986;2022-09-09T07:54:16;3.35;;;1.05;;
10309;SDS011;5200;43.236;27.986;2022-09-09T07:56:45;5.95;;;1.23;;
10309;SDS011;5200;43.236;27.986;2022-09-09T07:59:12;1.48;;;0.90;;
10309;SDS011;5200;43.236;27.986;2022-09-09T08:01:40;1.02;;;0.93;;
10309;SDS011;5200;43.236;27.986;2022-09-09T08:04:09;1.80;;;1.10;;
10309;SDS011;5200;43.236;27.986;2022-09-09T08:06:41;1.17;;;1.00;;
10309;SDS011;5200;43.236;27.986;2022-09-09T08:09:09;3.90;;;0.90;;
10309;SDS011;5200;43.236;27.986;2022-09-09T08:11:38;0.80;;;0.70;;
10309;SDS011;5200;43.236;27.986;2022-09-09T08:14:06;1.98;;;1.10;;
10309;SDS011;5200;43.236;27.986;2022-09-09T08:16:35;2.38;;;0.85;;
10309;SDS011;5200;43.236;27.986;2022-09-09T08:19:03;2.28;;;0.93;;
10309;SDS011;5200;43.236;27.986;2022-09-09T08:21:31;1.58;;;0.88;;
10309;SDS011;5200;43.236;27.986;2022-09-09T08:23:59;2.40;;;1.23;;
10309;SDS011;5200;43.236;27.986;2022-09-09T08:26:27;2.17;;;0.93;;
10309;SDS011;5200;43.236;27.986;2022-09-09T08:28:57;1.23;;;0.90;;
10309;SDS011;5200;43.236;27.986;2022-09-09T08:31:26;1.77;;;1.02;;
10309;SDS011;5200;43.236;27.986;2022-09-09T08:33:54;2.95;;;1.20;;
10309;SDS011;5200;43.236;27.986;2022-09-09T08:36:22;1.38;;;1.25;;
10309;SDS011;5200;43.236;27.986;2022-09-09T08:38:51;1.20;;;1.10;;
10309;SDS011;5200;43.236;27.986;2022-09-09T08:41:28;1.55;;;0.82;;
10309;SDS011;5200;43.236;27.986;2022-09-09T08:44:08;0.90;;;0.88;;
10309;SDS011;5200;43.236;27.986;2022-09-09T08:46:42;3.33;;;1.33;;
10309;SDS011;5200;43.236;27.986;2022-09-09T08:49:24;0.95;;;0.80;;
10309;SDS011;5200;43.236;27.986;2022-09-09T08:52:06;0.88;;;0.88;;
10309;SDS011;5200;43.236;27.986;2022-09-09T08:54:43;1.00;;;0.77;;
10309;SDS011;5200;43.236;27.986;2022-09-09T08:59:41;0.82;;;0.82;;
10309;SDS011;5200;43.236;27.986;2022-09-09T09:02:09;1.30;;;1.10;;
10309;SDS011;5200;43.236;27.986;2022-09-09T09:04:50;2.47;;;1.20;;
10309;SDS011;5200;43.236;27.986;2022-09-09T09:07:28;1.90;;;1.00;;
10309;SDS011;5200;43.236;27.986;2022-09-09T09:10:08;1.00;;;0.90;;
10309;SDS011;5200;43.236;27.986;2022-09-09T09:12:43;1.20;;;1.15;;
10309;SDS011;5200;43.236;27.986;2022-09-09T09:15:17;1.38;;;1.15;;
10309;SDS011;5200;43.236;27.986;2022-09-09T09:17:47;1.00;;;1.00;;
10309;SDS011;5200;43.236;27.986;2022-09-09T09:20:15;3.13;;;1.10;;
10309;SDS011;5200;43.236;27.986;2022-09-09T09:22:47;1.17;;;0.90;;
10309;SDS011;5200;43.236;27.986;2022-09-09T09:25:17;2.85;;;1.15;;
10309;SDS011;5200;43.236;27.986;2022-09-09T09:27:47;1.30;;;1.20;;
10309;SDS011;5200;43.236;27.986;2022-09-09T09:30:20;3.72;;;1.20;;
10309;SDS011;5200;43.236;27.986;2022-09-09T09:32:50;1.00;;;0.90;;
10309;SDS011;5200;43.236;27.986;2022-09-09T09:35:20;1.75;;;1.10;;
10309;SDS011;5200;43.236;27.986;2022-09-09T09:37:47;1.95;;;0.95;;
10309;SDS011;5200;43.236;27.986;2022-09-09T09:40:15;1.05;;;0.90;;
10309;SDS011;5200;43.236;27.986;2022-09-09T09:42:51;1.52;;;0.93;;
10309;SDS011;5200;43.236;27.986;2022-09-09T09:45:28;1.52;;;1.10;;
10309;SDS011;5200;43.236;27.986;2022-09-09T09:47:59;1.23;;;1.10;;
10309;SDS011;5200;43.236;27.986;2022-09-09T09:50:28;1.00;;;0.90;;
10309;SDS011;5200;43.236;27.986;2022-09-09T09:52:57;2.28;;;1.10;;
10309;SDS011;5200;43.236;27.986;2022-09-09T09:55:25;1.60;;;1.15;;
10309;SDS011;5200;43.236;27.986;2022-09-09T09:57:52;1.23;;;1.08;;
10309;SDS011;5200;43.236;27.986;2022-09-09T10:00:20;0.95;;;0.95;;
10309;SDS011;5200;43.236;27.986;2022-09-09T10:02:50;0.80;;;0.80;;
10309;SDS011;5200;43.236;27.986;2022-09-09T10:05:19;1.40;;;0.90;;
10309;SDS011;5200;43.236;27.986;2022-09-09T10:07:47;1.63;;;1.45;;
10309;SDS011;5200;43.236;27.986;2022-09-09T10:10:31;1.65;;;1.33;;
10309;SDS011;5200;43.236;27.986;2022-09-09T10:13:09;1.58;;;1.20;;
10309;SDS011;5200;43.236;27.986;2022-09-09T10:15:44;1.67;;;0.80;;
10309;SDS011;5200;43.236;27.986;2022-09-09T10:18:29;1.08;;;1.05;;
10309;SDS011;5200;43.236;27.986;2022-09-09T10:21:06;2.40;;;1.05;;
10309;SDS011;5200;43.236;27.986;2022-09-09T10:23:46;1.40;;;1.10;;
10309;SDS011;5200;43.236;27.986;2022-09-09T10:26:31;2.60;;;0.88;;
10309;SDS011;5200;43.236;27.986;2022-09-09T10:29:22;2.90;;;1.52;;
10309;SDS011;5200;43.236;27.986;2022-09-09T10:32:01;1.00;;;1.00;;
10309;SDS011;5200;43.236;27.986;2022-09-09T10:34:44;0.90;;;0.90;;
10309;SDS011;5200;43.236;27.986;2022-09-09T10:37:28;1.73;;;1.30;;
10309;SDS011;5200;43.236;27.986;2022-09-09T10:40:12;2.17;;;1.20;;
10309;SDS011;5200;43.236;27.986;2022-09-09T10:42:51;4.35;;;1.30;;
10309;SDS011;5200;43.236;27.986;2022-09-09T10:45:20;1.73;;;1.02;;
10309;SDS011;5200;43.236;27.986;2022-09-09T10:48:11;1.38;;;1.05;;
10309;SDS011;5200;43.236;27.986;2022-09-09T10:50:54;2.08;;;1.00;;
10309;SDS011;5200;43.236;27.986;2022-09-09T10:53:35;1.42;;;1.10;;
10309;SDS011;5200;43.236;27.986;2022-09-09T10:56:06;1.70;;;1.30;;
10309;SDS011;5200;43.236;27.986;2022-09-09T10:58:35;1.58;;;1.48;;
10309;SDS011;5200;43.236;27.986;2022-09-09T11:01:09;1.27;;;1.17;;
10309;SDS011;5200;43.236;27.986;2022-09-09T11:03:42;1.40;;;1.10;;
10309;SDS011;5200;43.236;27.986;2022-09-09T11:06:16;1.25;;;0.90;;
10309;SDS011;5200;43.236;27.986;2022-09-09T11:08:45;3.42;;;1.52;;
10309;SDS011;5200;43.236;27.986;2022-09-09T11:11:16;3.60;;;1.30;;
10309;SDS011;5200;43.236;27.986;2022-09-09T11:13:47;0.90;;;0.90;;
10309;SDS011;5200;43.236;27.986;2022-09-09T11:16:22;3.13;;;1.20;;
10309;SDS011;5200;43.236;27.986;2022-09-09T11:18:55;2.58;;;1.20;;
10309;SDS011;5200;43.236;27.986;2022-09-09T11:21:30;2.15;;;1.40;;
10309;SDS011;5200;43.236;27.986;2022-09-09T11:24:06;1.38;;;1.13;;
10309;SDS011;5200;43.236;27.986;2022-09-09T11:26:39;1.27;;;1.10;;
10309;SDS011;5200;43.236;27.986;2022-09-09T11:29:27;1.42;;;1.27;;
10309;SDS011;5200;43.236;27.986;2022-09-09T11:32:25;1.50;;;1.17;;
10309;SDS011;5200;43.236;27.986;2022-09-09T11:35:11;1.35;;;1.20;;
10309;SDS011;5200;43.236;27.986;2022-09-09T11:37:55;1.40;;;1.30;;
10309;SDS011;5200;43.236;27.986;2022-09-09T11:40:43;2.42;;;1.15;;
10309;SDS011;5200;43.236;27.986;2022-09-09T11:43:12;4.60;;;1.70;;
10309;SDS011;5200;43.236;27.986;2022-09-09T11:45:42;2.05;;;1.10;;
10309;SDS011;5200;43.236;27.986;2022-09-09T11:48:22;2.83;;;1.23;;
10309;SDS011;5200;43.236;27.986;2022-09-09T11:50:58;1.10;;;1.00;;
10309;SDS011;5200;43.236;27.986;2022-09-09T11:53:29;1.52;;;0.90;;
10309;SDS011;5200;43.236;27.986;2022-09-09T11:56:04;0.90;;;0.90;;
10309;SDS011;5200;43.236;27.986;2022-09-09T11:58:36;2.80;;;1.10;;
10309;SDS011;5200;43.236;27.986;2022-09-09T12:04:01;2.25;;;1.10;;
10309;SDS011;5200;43.236;27.986;2022-09-09T12:06:44;2.55;;;1.40;;
10309;SDS011;5200;43.236;27.986;2022-09-09T12:09:17;4.93;;;1.15;;
10309;SDS011;5200;43.236;27.986;2022-09-09T12:11:48;2.53;;;1.02;;
10309;SDS011;5200;43.236;27.986;2022-09-09T12:14:22;1.05;;;1.00;;
10309;SDS011;5200;43.236;27.986;2022-09-09T12:17:08;1.13;;;1.02;;
10309;SDS011;5200;43.236;27.986;2022-09-09T12:19:36;2.53;;;0.98;;
10309;SDS011;5200;43.236;27.986;2022-09-09T12:22:04;1.52;;;1.40;;
10309;SDS011;5200;43.236;27.986;2022-09-09T12:24:39;2.33;;;1.10;;
10309;SDS011;5200;43.236;27.986;2022-09-09T12:27:14;1.67;;;0.82;;
10309;SDS011;5200;43.236;27.986;2022-09-09T12:29:47;3.05;;;1.13;;
10309;SDS011;5200;43.236;27.986;2022-09-09T12:32:22;3.97;;;1.67;;
10309;SDS011;5200;43.236;27.986;2022-09-09T12:34:52;4.75;;;1.35;;
10309;SDS011;5200;43.236;27.986;2022-09-09T12:37:25;1.50;;;1.20;;
10309;SDS011;5200;43.236;27.986;2022-09-09T12:39:58;1.38;;;1.30;;
10309;SDS011;5200;43.236;27.986;2022-09-09T12:42:27;3.10;;;1.20;;
10309;SDS011;5200;43.236;27.986;2022-09-09T12:44:55;2.70;;;1.13;;
10309;SDS011;5200;43.236;27.986;2022-09-09T12:47:25;1.30;;;1.20;;
10309;SDS011;5200;43.236;27.986;2022-09-09T12:49:59;1.08;;;0.98;;
10309;SDS011;5200;43.236;27.986;2022-09-09T12:52:27;1.80;;;1.30;;
10309;SDS011;5200;43.236;27.986;2022-09-09T12:54:58;2.03;;;1.60;;
10309;SDS011;5200;43.236;27.986;2022-09-09T12:57:29;1.15;;;1.05;;
10309;SDS011;5200;43.236;27.986;2022-09-09T13:00:11;2.53;;;1.40;;
10309;SDS011;5200;43.236;27.986;2022-09-09T13:02:45;1.27;;;1.20;;
10309;SDS011;5200;43.236;27.986;2022-09-09T13:05:16;1.40;;;1.30;;
10309;SDS011;5200;43.236;27.986;2022-09-09T13:07:45;2.20;;;1.42;;
10309;SDS011;5200;43.236;27.986;2022-09-09T13:10:15;1.65;;;1.55;;
10309;SDS011;5200;43.236;27.986;2022-09-09T13:12:51;3.60;;;1.40;;
10309;SDS011;5200;43.236;27.986;2022-09-09T13:15:20;1.95;;;1.40;;
10309;SDS011;5200;43.236;27.986;2022-09-09T13:17:50;1.63;;;1.52;;
10309;SDS011;5200;43.236;27.986;2022-09-09T13:20:21;2.13;;;1.30;;
10309;SDS011;5200;43.236;27.986;2022-09-09T13:22:50;3.13;;;1.60;;
10309;SDS011;5200;43.236;27.986;2022-09-09T13:25:21;2.45;;;1.60;;
10309;SDS011;5200;43.236;27.986;2022-09-09T13:27:52;1.80;;;1.70;;
10309;SDS011;5200;43.236;27.986;2022-09-09T13:30:22;3.55;;;1.70;;
10309;SDS011;5200;43.236;27.986;2022-09-09T13:33:00;1.70;;;1.60;;
10309;SDS011;5200;43.236;27.986;2022-09-09T13:35:32;4.03;;;1.80;;
10309;SDS011;5200;43.236;27.986;2022-09-09T13:38:06;2.22;;;1.75;;
10309;SDS011;5200;43.236;27.986;2022-09-09T13:40:37;2.63;;;1.98;;
10309;SDS011;5200;43.236;27.986;2022-09-09T13:43:04;1.50;;;1.40;;
10309;SDS011;5200;43.236;27.986;2022-09-09T13:45:31;7.70;;;1.88;;
10309;SDS011;5200;43.236;27.986;2022-09-09T13:48:07;1.85;;;1.75;;
10309;SDS011;5200;43.236;27.986;2022-09-09T13:50:36;2.22;;;2.00;;
10309;SDS011;5200;43.236;27.986;2022-09-09T13:53:03;3.13;;;1.90;;
10309;SDS011;5200;43.236;27.986;2022-09-09T13:55:30;3.28;;;2.08;;
10309;SDS011;5200;43.236;27.986;2022-09-09T13:57:59;2.95;;;1.80;;
10309;SDS011;5200;43.236;27.986;2022-09-09T14:00:28;4.32;;;2.25;;
10309;SDS011;5200;43.236;27.986;2022-09-09T14:02:57;2.35;;;2.13;;
10309;SDS011;5200;43.236;27.986;2022-09-09T14:05:26;2.65;;;2.00;;
10309;SDS011;5200;43.236;27.986;2022-09-09T14:07:53;2.55;;;2.28;;
10309;SDS011;5200;43.236;27.986;2022-09-09T14:10:20;4.40;;;2.40;;
10309;SDS011;5200;43.236;27.986;2022-09-09T14:12:47;3.40;;;2.17;;
10309;SDS011;5200;43.236;27.986;2022-09-09T14:15:15;2.97;;;2.40;;
10309;SDS011;5200;43.236;27.986;2022-09-09T14:17:42;3.10;;;2.30;;
10309;SDS011;5200;43.236;27.986;2022-09-09T14:20:09;3.22;;;2.47;;
10309;SDS011;5200;43.236;27.986;2022-09-09T14:22:40;2.30;;;2.10;;
10309;SDS011;5200;43.236;27.986;2022-09-09T14:25:07;2.42;;;2.22;;
10309;SDS011;5200;43.236;27.986;2022-09-09T14:27:34;3.80;;;2.10;;
10309;SDS011;5200;43.236;27.986;2022-09-09T14:30:02;3.92;;;2.25;;
10309;SDS011;5200;43.236;27.986;2022-09-09T14:32:31;2.15;;;2.05;;
10309;SDS011;5200;43.236;27.986;2022-09-09T14:34:58;2.38;;;1.77;;
10309;SDS011;5200;43.236;27.986;2022-09-09T14:37:25;3.65;;;2.30;;
10309;SDS011;5200;43.236;27.986;2022-09-09T14:39:53;2.85;;;2.28;;
10309;SDS011;5200;43.236;27.986;2022-09-09T14:42:21;5.50;;;2.20;;
10309;SDS011;5200;43.236;27.986;2022-09-09T14:44:48;1.70;;;1.60;;
10309;SDS011;5200;43.236;27.986;2022-09-09T14:47:15;2.25;;;1.98;;
10309;SDS011;5200;43.236;27.986;2022-09-09T14:49:43;2.63;;;2.25;;
10309;SDS011;5200;43.236;27.986;2022-09-09T14:52:10;2.33;;;2.10;;
10309;SDS011;5200;43.236;27.986;2022-09-09T14:54:38;2.20;;;1.95;;
10309;SDS011;5200;43.236;27.986;2022-09-09T14:57:05;3.38;;;2.03;;
10309;SDS011;5200;43.236;27.986;2022-09-09T14:59:32;3.05;;;2.17;;
10309;SDS011;5200;43.236;27.986;2022-09-09T15:01:59;2.88;;;1.80;;
10309;SDS011;5200;43.236;27.986;2022-09-09T15:04:29;3.30;;;1.92;;
10309;SDS011;5200;43.236;27.986;2022-09-09T15:06:57;3.22;;;1.95;;
10309;SDS011;5200;43.236;27.986;2022-09-09T15:09:24;2.53;;;2.00;;
10309;SDS011;5200;43.236;27.986;2022-09-09T15:11:51;2.45;;;2.25;;
10309;SDS011;5200;43.236;27.986;2022-09-09T15:14:18;3.25;;;1.92;;
10309;SDS011;5200;43.236;27.986;2022-09-09T15:16:45;2.28;;;2.10;;